Decoded Metar for LYVR (VRSAC in SERBIA) (IATA:N/A) | Meteo·Mobile Aviation Weather
aviador You're here:

LYVR Decoded Metar

VRSAC in SERBIA
Report Time2020-02-19 03:30:00
UTC Time2020-02-19 03:38:53
Flight Rules vfr VFR
Wind300° at 03 kt
W.Decomp.*RWY 34: 2.2 kt HW 2 kt LCW
RWY 01: 0.9 kt HW 2.9 kt LCW
Visibility9999 m
Phenomena:N/A
Clouds:N/A
Expected CloudBase > 400 ft AGL from Temp-Dew spread
CeilingNone
Temp01°C (ISA -13)
Dew Point00°C (93% RH)
AAT-2.1°C
QNH1024 hPa
Density Alt-1,650 ft
Elevation279 ft
Report Wrong Elevation
Raw Report
METAR LYVR 190330Z AUTO 30003KT CAVOK 01/00 Q1024=

Extra information for LYVR:More info

Metar Taf Metar & Taf Last 4 Metars F.Rules Stats Wind Profile Meteogram Temp Stats Airport Information Weather charts Add Link Nearby VenuesMetar ALERT Operation Metar Decoded Social comments